sensor_id;sensor_type;location;lat;lon;timestamp;pressure;altitude;pressure_sealevel;temperature;humidity
46412;BME280;32113;42.012;24.870;2023-02-11T00:00:37;100915.47;;;-2.01;39.19
46412;BME280;32113;42.012;24.870;2023-02-11T00:03:02;100914.09;;;-2.09;39.53
46412;BME280;32113;42.012;24.870;2023-02-11T00:05:28;100912.53;;;-2.07;40.19
46412;BME280;32113;42.012;24.870;2023-02-11T00:07:53;100918.22;;;-2.10;39.83
46412;BME280;32113;42.012;24.870;2023-02-11T00:10:18;100916.91;;;-2.17;39.92
46412;BME280;32113;42.012;24.870;2023-02-11T00:12:43;100913.50;;;-2.29;40.33
46412;BME280;32113;42.012;24.870;2023-02-11T00:15:09;100912.66;;;-2.42;40.65
46412;BME280;32113;42.012;24.870;2023-02-11T00:17:35;100921.06;;;-2.29;40.50
46412;BME280;32113;42.012;24.870;2023-02-11T00:20:00;100917.03;;;-2.39;40.35
46412;BME280;32113;42.012;24.870;2023-02-11T00:22:25;100913.75;;;-2.38;40.91
46412;BME280;32113;42.012;24.870;2023-02-11T00:24:51;100927.50;;;-2.33;40.94
46412;BME280;32113;42.012;24.870;2023-02-11T00:27:16;100928.94;;;-2.48;41.33
46412;BME280;32113;42.012;24.870;2023-02-11T00:29:41;100921.28;;;-2.50;41.43
46412;BME280;32113;42.012;24.870;2023-02-11T00:32:06;100920.38;;;-2.51;41.08
46412;BME280;32113;42.012;24.870;2023-02-11T00:34:33;100922.78;;;-2.52;41.59
46412;BME280;32113;42.012;24.870;2023-02-11T00:36:59;100916.78;;;-2.54;41.15
46412;BME280;32113;42.012;24.870;2023-02-11T00:39:24;100913.06;;;-2.47;41.06
46412;BME280;32113;42.012;24.870;2023-02-11T00:41:49;100914.03;;;-2.45;41.12
46412;BME280;32113;42.012;24.870;2023-02-11T00:44:15;100908.81;;;-2.48;40.27
46412;BME280;32113;42.012;24.870;2023-02-11T00:46:40;100912.84;;;-2.39;39.90
46412;BME280;32113;42.012;24.870;2023-02-11T00:49:05;100909.13;;;-2.20;40.42
46412;BME280;32113;42.012;24.870;2023-02-11T00:51:30;100912.78;;;-2.28;40.79
46412;BME280;32113;42.012;24.870;2023-02-11T00:53:56;100916.50;;;-2.23;40.59
46412;BME280;32113;42.012;24.870;2023-02-11T00:56:21;100914.16;;;-2.20;40.71
46412;BME280;32113;42.012;24.870;2023-02-11T00:58:46;100918.09;;;-2.35;40.73
46412;BME280;32113;42.012;24.870;2023-02-11T01:01:12;100907.50;;;-2.43;41.00
46412;BME280;32113;42.012;24.870;2023-02-11T01:03:37;100915.69;;;-2.58;41.56
46412;BME280;32113;42.012;24.870;2023-02-11T01:06:03;100915.34;;;-2.62;41.91
46412;BME280;32113;42.012;24.870;2023-02-11T01:08:28;100915.44;;;-2.61;41.81
46412;BME280;32113;42.012;24.870;2023-02-11T01:10:57;100901.59;;;-2.56;41.41
46412;BME280;32113;42.012;24.870;2023-02-11T01:13:23;100912.53;;;-2.43;41.63
46412;BME280;32113;42.012;24.870;2023-02-11T01:15:48;100907.28;;;-2.46;41.37
46412;BME280;32113;42.012;24.870;2023-02-11T01:18:14;100910.22;;;-2.52;41.62
46412;BME280;32113;42.012;24.870;2023-02-11T01:20:39;100915.81;;;-2.56;41.72
46412;BME280;32113;42.012;24.870;2023-02-11T01:23:04;100905.28;;;-2.62;41.50
46412;BME280;32113;42.012;24.870;2023-02-11T01:25:30;100894.69;;;-2.70;41.80
46412;BME280;32113;42.012;24.870;2023-02-11T01:27:55;100894.25;;;-2.65;41.75
46412;BME280;32113;42.012;24.870;2023-02-11T01:30:20;100891.94;;;-2.61;41.67
46412;BME280;32113;42.012;24.870;2023-02-11T01:32:45;100894.25;;;-2.65;41.54
46412;BME280;32113;42.012;24.870;2023-02-11T01:35:11;100889.13;;;-2.54;41.29
46412;BME280;32113;42.012;24.870;2023-02-11T01:37:36;100888.16;;;-2.32;40.96
46412;BME280;32113;42.012;24.870;2023-02-11T01:40:02;100884.66;;;-2.46;40.84
46412;BME280;32113;42.012;24.870;2023-02-11T01:42:28;100878.66;;;-2.36;40.06
46412;BME280;32113;42.012;24.870;2023-02-11T01:44:54;100856.22;;;-2.33;40.18
46412;BME280;32113;42.012;24.870;2023-02-11T01:47:19;100862.13;;;-2.45;40.75
46412;BME280;32113;42.012;24.870;2023-02-11T01:49:46;100856.56;;;-2.41;40.91
46412;BME280;32113;42.012;24.870;2023-02-11T01:52:17;100866.72;;;-2.03;40.45
46412;BME280;32113;42.012;24.870;2023-02-11T01:54:45;100868.75;;;-1.86;39.69
46412;BME280;32113;42.012;24.870;2023-02-11T01:57:31;100867.84;;;-1.74;39.03
46412;BME280;32113;42.012;24.870;2023-02-11T01:59:59;100868.00;;;-1.85;39.22
46412;BME280;32113;42.012;24.870;2023-02-11T02:02:48;100872.69;;;-1.52;38.91
46412;BME280;32113;42.012;24.870;2023-02-11T02:07:59;100870.66;;;-2.07;40.26
46412;BME280;32113;42.012;24.870;2023-02-11T02:10:27;100864.88;;;-2.18;40.09
46412;BME280;32113;42.012;24.870;2023-02-11T02:12:53;100866.28;;;-2.21;40.08
46412;BME280;32113;42.012;24.870;2023-02-11T02:15:31;100868.03;;;-2.08;40.36
46412;BME280;32113;42.012;24.870;2023-02-11T02:18:09;100860.28;;;-2.23;40.26
46412;BME280;32113;42.012;24.870;2023-02-11T02:25:56;100872.31;;;-2.43;41.06
46412;BME280;32113;42.012;24.870;2023-02-11T02:38:39;100864.09;;;-2.65;41.59
46412;BME280;32113;42.012;24.870;2023-02-11T02:41:09;100854.25;;;-2.61;41.74
46412;BME280;32113;42.012;24.870;2023-02-11T02:43:36;100864.22;;;-2.39;41.18
46412;BME280;32113;42.012;24.870;2023-02-11T02:46:35;100862.66;;;-2.25;40.88
46412;BME280;32113;42.012;24.870;2023-02-11T02:48:54;100870.09;;;-2.15;40.68
46412;BME280;32113;42.012;24.870;2023-02-11T02:59:20;100864.88;;;-2.66;41.61
46412;BME280;32113;42.012;24.870;2023-02-11T03:01:51;100872.59;;;-2.74;41.94
46412;BME280;32113;42.012;24.870;2023-02-11T03:06:54;100876.66;;;-2.77;41.93
46412;BME280;32113;42.012;24.870;2023-02-11T03:09:31;100883.97;;;-2.68;42.24
46412;BME280;32113;42.012;24.870;2023-02-11T03:11:59;100875.22;;;-2.73;42.29
46412;BME280;32113;42.012;24.870;2023-02-11T03:14:26;100884.31;;;-2.75;42.01
46412;BME280;32113;42.012;24.870;2023-02-11T03:16:53;100880.78;;;-2.77;42.24
46412;BME280;32113;42.012;24.870;2023-02-11T03:19:20;100869.91;;;-2.66;42.27
46412;BME280;32113;42.012;24.870;2023-02-11T03:21:47;100865.72;;;-2.65;41.86
46412;BME280;32113;42.012;24.870;2023-02-11T03:24:15;100869.44;;;-2.72;42.22
46412;BME280;32113;42.012;24.870;2023-02-11T03:26:45;100875.34;;;-2.71;42.18
46412;BME280;32113;42.012;24.870;2023-02-11T03:34:22;100880.22;;;-2.97;42.82
46412;BME280;32113;42.012;24.870;2023-02-11T03:39:36;100883.41;;;-2.87;42.54
46412;BME280;32113;42.012;24.870;2023-02-11T03:42:02;100868.75;;;-2.81;42.34
46412;BME280;32113;42.012;24.870;2023-02-11T03:44:30;100871.50;;;-2.78;42.42
46412;BME280;32113;42.012;24.870;2023-02-11T03:46:58;100867.00;;;-2.94;42.63
46412;BME280;32113;42.012;24.870;2023-02-11T03:49:25;100868.72;;;-2.93;42.68
46412;BME280;32113;42.012;24.870;2023-02-11T03:51:51;100877.34;;;-3.01;43.09
46412;BME280;32113;42.012;24.870;2023-02-11T03:54:18;100866.13;;;-2.83;42.78
46412;BME280;32113;42.012;24.870;2023-02-11T03:56:56;100876.38;;;-2.92;42.75
46412;BME280;32113;42.012;24.870;2023-02-11T03:59:21;100896.94;;;-2.85;42.41
46412;BME280;32113;42.012;24.870;2023-02-11T04:01:47;100874.81;;;-2.67;42.36
46412;BME280;32113;42.012;24.870;2023-02-11T04:04:12;100870.09;;;-2.51;41.68
46412;BME280;32113;42.012;24.870;2023-02-11T04:06:38;100870.34;;;-2.47;41.65
46412;BME280;32113;42.012;24.870;2023-02-11T04:09:03;100877.34;;;-2.31;41.25
46412;BME280;32113;42.012;24.870;2023-02-11T04:11:29;100874.38;;;-2.26;40.81
46412;BME280;32113;42.012;24.870;2023-02-11T04:13:54;100874.47;;;-2.36;41.33
46412;BME280;32113;42.012;24.870;2023-02-11T04:16:19;100881.47;;;-2.44;41.79
46412;BME280;32113;42.012;24.870;2023-02-11T04:18:44;100881.59;;;-2.42;41.54
46412;BME280;32113;42.012;24.870;2023-02-11T04:21:10;100875.13;;;-2.62;41.78
46412;BME280;32113;42.012;24.870;2023-02-11T04:23:35;100877.22;;;-2.57;41.77
46412;BME280;32113;42.012;24.870;2023-02-11T04:26:00;100869.94;;;-2.88;42.17
46412;BME280;32113;42.012;24.870;2023-02-11T04:28:26;100877.31;;;-2.79;42.17
46412;BME280;32113;42.012;24.870;2023-02-11T04:30:53;100870.41;;;-2.82;42.01
46412;BME280;32113;42.012;24.870;2023-02-11T04:33:19;100865.06;;;-2.74;41.81
46412;BME280;32113;42.012;24.870;2023-02-11T04:35:44;100866.91;;;-2.84;41.74
46412;BME280;32113;42.012;24.870;2023-02-11T04:38:09;100859.19;;;-2.75;42.04
46412;BME280;32113;42.012;24.870;2023-02-11T04:40:34;100863.75;;;-2.69;41.74
46412;BME280;32113;42.012;24.870;2023-02-11T04:43:00;100858.84;;;-2.68;41.49
46412;BME280;32113;42.012;24.870;2023-02-11T04:45:25;100854.59;;;-2.57;41.24
46412;BME280;32113;42.012;24.870;2023-02-11T04:47:50;100851.75;;;-2.49;40.99
46412;BME280;32113;42.012;24.870;2023-02-11T04:50:16;100847.81;;;-2.34;41.03
46412;BME280;32113;42.012;24.870;2023-02-11T04:52:41;100854.47;;;-2.22;40.79
46412;BME280;32113;42.012;24.870;2023-02-11T04:55:07;100848.78;;;-2.20;40.09
46412;BME280;32113;42.012;24.870;2023-02-11T04:57:32;100847.59;;;-2.25;40.43
46412;BME280;32113;42.012;24.870;2023-02-11T04:59:57;100852.06;;;-2.09;39.94
46412;BME280;32113;42.012;24.870;2023-02-11T05:02:23;100855.13;;;-2.13;39.48
46412;BME280;32113;42.012;24.870;2023-02-11T05:04:48;100841.78;;;-2.48;39.94
46412;BME280;32113;42.012;24.870;2023-02-11T05:07:13;100839.63;;;-2.31;40.22
46412;BME280;32113;42.012;24.870;2023-02-11T05:09:38;100841.69;;;-2.26;39.88
46412;BME280;32113;42.012;24.870;2023-02-11T05:12:04;100841.91;;;-2.34;39.84
46412;BME280;32113;42.012;24.870;2023-02-11T05:14:29;100839.94;;;-2.39;40.18
46412;BME280;32113;42.012;24.870;2023-02-11T05:16:54;100836.22;;;-2.44;40.19
46412;BME280;32113;42.012;24.870;2023-02-11T05:19:20;100832.63;;;-2.35;39.86
46412;BME280;32113;42.012;24.870;2023-02-11T05:21:45;100827.34;;;-2.27;39.80
46412;BME280;32113;42.012;24.870;2023-02-11T05:24:10;100834.81;;;-2.28;39.44
46412;BME280;32113;42.012;24.870;2023-02-11T05:26:35;100841.47;;;-2.29;39.87
46412;BME280;32113;42.012;24.870;2023-02-11T05:29:01;100854.78;;;-2.06;39.23
46412;BME280;32113;42.012;24.870;2023-02-11T05:31:26;100847.75;;;-1.86;39.13
46412;BME280;32113;42.012;24.870;2023-02-11T05:33:51;100860.38;;;-1.61;39.38
46412;BME280;32113;42.012;24.870;2023-02-11T05:36:16;100865.72;;;-1.30;39.83
46412;BME280;32113;42.012;24.870;2023-02-11T05:38:42;100865.41;;;-1.10;39.32
46412;BME280;32113;42.012;24.870;2023-02-11T05:41:08;100864.69;;;-0.95;39.37
46412;BME280;32113;42.012;24.870;2023-02-11T05:43:33;100858.78;;;-0.82;39.31
46412;BME280;32113;42.012;24.870;2023-02-11T05:45:59;100862.22;;;-0.68;39.34
46412;BME280;32113;42.012;24.870;2023-02-11T05:48:25;100864.66;;;-0.56;38.58
46412;BME280;32113;42.012;24.870;2023-02-11T05:50:50;100866.97;;;-0.46;38.55
46412;BME280;32113;42.012;24.870;2023-02-11T05:53:16;100874.34;;;-0.49;39.02
46412;BME280;32113;42.012;24.870;2023-02-11T05:55:41;100869.88;;;-0.53;38.87
46412;BME280;32113;42.012;24.870;2023-02-11T05:58:06;100866.56;;;-0.79;37.70
46412;BME280;32113;42.012;24.870;2023-02-11T06:00:32;100869.84;;;-1.19;38.06
46412;BME280;32113;42.012;24.870;2023-02-11T06:02:57;100872.19;;;-1.34;37.74
46412;BME280;32113;42.012;24.870;2023-02-11T06:05:22;100874.03;;;-1.57;38.20
46412;BME280;32113;42.012;24.870;2023-02-11T06:07:48;100874.41;;;-1.64;38.54
46412;BME280;32113;42.012;24.870;2023-02-11T06:10:13;100869.81;;;-1.70;39.59
46412;BME280;32113;42.012;24.870;2023-02-11T06:12:38;100876.09;;;-1.51;39.12
46412;BME280;32113;42.012;24.870;2023-02-11T06:15:04;100871.72;;;-1.54;38.54
46412;BME280;32113;42.012;24.870;2023-02-11T06:17:29;100864.28;;;-1.52;38.49
46412;BME280;32113;42.012;24.870;2023-02-11T06:19:58;100868.47;;;-1.65;38.66
46412;BME280;32113;42.012;24.870;2023-02-11T06:22:24;100864.28;;;-1.90;39.15
46412;BME280;32113;42.012;24.870;2023-02-11T06:24:50;100868.03;;;-2.08;39.36
46412;BME280;32113;42.012;24.870;2023-02-11T06:27:15;100850.31;;;-2.10;39.18
46412;BME280;32113;42.012;24.870;2023-02-11T06:29:41;100864.41;;;-2.00;39.10
46412;BME280;32113;42.012;24.870;2023-02-11T06:32:07;100858.03;;;-1.83;39.04
46412;BME280;32113;42.012;24.870;2023-02-11T06:34:32;100867.28;;;-1.70;38.83
46412;BME280;32113;42.012;24.870;2023-02-11T06:36:57;100860.06;;;-1.77;39.05
46412;BME280;32113;42.012;24.870;2023-02-11T06:39:23;100877.03;;;-1.75;38.55
46412;BME280;32113;42.012;24.870;2023-02-11T06:41:48;100867.78;;;-1.50;38.58
46412;BME280;32113;42.012;24.870;2023-02-11T06:44:13;100869.41;;;-1.39;38.80
46412;BME280;32113;42.012;24.870;2023-02-11T06:46:38;100866.66;;;-1.16;38.79
46412;BME280;32113;42.012;24.870;2023-02-11T06:49:04;100871.66;;;-0.91;38.70
46412;BME280;32113;42.012;24.870;2023-02-11T06:51:29;100869.00;;;-0.67;38.85
46412;BME280;32113;42.012;24.870;2023-02-11T06:53:54;100876.97;;;-0.47;38.60
46412;BME280;32113;42.012;24.870;2023-02-11T06:56:20;100865.03;;;-0.23;38.04
46412;BME280;32113;42.012;24.870;2023-02-11T06:58:46;100859.66;;;-0.01;37.41
46412;BME280;32113;42.012;24.870;2023-02-11T07:01:12;100869.16;;;0.17;37.50
46412;BME280;32113;42.012;24.870;2023-02-11T07:03:40;100865.47;;;0.41;37.10
46412;BME280;32113;42.012;24.870;2023-02-11T07:06:07;100871.97;;;0.50;36.43
46412;BME280;32113;42.012;24.870;2023-02-11T07:08:32;100860.53;;;0.42;35.75
46412;BME280;32113;42.012;24.870;2023-02-11T07:10:58;100858.38;;;0.48;35.17
46412;BME280;32113;42.012;24.870;2023-02-11T07:13:23;100853.22;;;0.18;35.55
46412;BME280;32113;42.012;24.870;2023-02-11T07:15:48;100849.31;;;-0.19;36.02
46412;BME280;32113;42.012;24.870;2023-02-11T07:18:14;100842.44;;;-0.62;36.57
46412;BME280;32113;42.012;24.870;2023-02-11T07:20:39;100834.38;;;-0.70;36.55
46412;BME280;32113;42.012;24.870;2023-02-11T07:23:04;100837.75;;;-0.96;37.31
46412;BME280;32113;42.012;24.870;2023-02-11T07:25:30;100834.69;;;-1.04;37.99
46412;BME280;32113;42.012;24.870;2023-02-11T07:27:55;100830.47;;;-1.30;37.82
46412;BME280;32113;42.012;24.870;2023-02-11T07:30:20;100827.38;;;-1.26;37.64
46412;BME280;32113;42.012;24.870;2023-02-11T07:32:46;100829.03;;;-1.13;37.70
46412;BME280;32113;42.012;24.870;2023-02-11T07:35:11;100822.41;;;-0.99;37.21
46412;BME280;32113;42.012;24.870;2023-02-11T07:37:36;100833.03;;;-0.64;37.27
46412;BME280;32113;42.012;24.870;2023-02-11T07:40:02;100836.31;;;-0.52;36.80
46412;BME280;32113;42.012;24.870;2023-02-11T07:42:27;100835.72;;;-0.21;36.39
46412;BME280;32113;42.012;24.870;2023-02-11T07:44:52;100832.38;;;-0.06;36.10
46412;BME280;32113;42.012;24.870;2023-02-11T07:47:18;100833.50;;;0.12;36.37
46412;BME280;32113;42.012;24.870;2023-02-11T07:49:44;100831.09;;;0.43;35.29
46412;BME280;32113;42.012;24.870;2023-02-11T07:52:09;100819.13;;;0.69;35.59
46412;BME280;32113;42.012;24.870;2023-02-11T07:54:34;100821.50;;;0.96;35.78
46412;BME280;32113;42.012;24.870;2023-02-11T07:57:00;100828.75;;;1.20;35.52
46412;BME280;32113;42.012;24.870;2023-02-11T07:59:25;100829.16;;;1.42;35.30
46412;BME280;32113;42.012;24.870;2023-02-11T08:01:51;100827.78;;;1.64;35.64
46412;BME280;32113;42.012;24.870;2023-02-11T08:04:16;100827.84;;;1.81;35.62
46412;BME280;32113;42.012;24.870;2023-02-11T08:06:42;100820.22;;;1.96;35.75
46412;BME280;32113;42.012;24.870;2023-02-11T08:09:08;100831.06;;;2.10;34.80
46412;BME280;32113;42.012;24.870;2023-02-11T08:11:35;100826.88;;;2.27;35.06
46412;BME280;32113;42.012;24.870;2023-02-11T08:14:00;100819.75;;;2.36;35.02
46412;BME280;32113;42.012;24.870;2023-02-11T08:16:30;100822.31;;;2.53;34.53
46412;BME280;32113;42.012;24.870;2023-02-11T08:18:56;100822.75;;;2.62;34.51
46412;BME280;32113;42.012;24.870;2023-02-11T08:21:22;100831.84;;;2.75;34.20
46412;BME280;32113;42.012;24.870;2023-02-11T08:23:48;100824.78;;;2.86;33.45
46412;BME280;32113;42.012;24.870;2023-02-11T08:26:14;100812.94;;;3.04;38.04
46412;BME280;32113;42.012;24.870;2023-02-11T08:28:41;100804.16;;;3.15;33.56
46412;BME280;32113;42.012;24.870;2023-02-11T08:31:11;100803.84;;;3.25;33.35
46412;BME280;32113;42.012;24.870;2023-02-11T08:33:37;100802.09;;;3.42;33.03
46412;BME280;32113;42.012;24.870;2023-02-11T08:36:11;100805.84;;;3.51;32.57
46412;BME280;32113;42.012;24.870;2023-02-11T08:38:36;100800.34;;;3.60;32.88
46412;BME280;32113;42.012;24.870;2023-02-11T08:41:02;100797.41;;;3.70;32.37
46412;BME280;32113;42.012;24.870;2023-02-11T08:43:27;100786.13;;;3.83;31.65
46412;BME280;32113;42.012;24.870;2023-02-11T08:45:53;100793.00;;;4.04;44.96
46412;BME280;32113;42.012;24.870;2023-02-11T08:48:18;100792.84;;;4.20;36.63
46412;BME280;32113;42.012;24.870;2023-02-11T08:50:43;100781.75;;;4.38;33.99
46412;BME280;32113;42.012;24.870;2023-02-11T08:53:09;100775.81;;;4.59;31.91
46412;BME280;32113;42.012;24.870;2023-02-11T08:55:35;100772.44;;;4.80;33.22
46412;BME280;32113;42.012;24.870;2023-02-11T08:58:00;100769.03;;;5.00;31.88
46412;BME280;32113;42.012;24.870;2023-02-11T09:00:25;100776.38;;;5.37;38.15
46412;BME280;32113;42.012;24.870;2023-02-11T09:02:51;100774.91;;;5.65;32.55
46412;BME280;32113;42.012;24.870;2023-02-11T09:05:16;100772.41;;;5.89;31.39
46412;BME280;32113;42.012;24.870;2023-02-11T09:07:41;100769.16;;;6.18;30.87
46412;BME280;32113;42.012;24.870;2023-02-11T09:10:07;100765.28;;;6.54;30.57
46412;BME280;32113;42.012;24.870;2023-02-11T09:12:32;100761.41;;;6.91;30.94
46412;BME280;32113;42.012;24.870;2023-02-11T09:14:57;100765.84;;;7.25;29.66
46412;BME280;32113;42.012;24.870;2023-02-11T09:17:23;100761.00;;;7.61;29.57
46412;BME280;32113;42.012;24.870;2023-02-11T09:19:48;100759.47;;;7.99;28.62
46412;BME280;32113;42.012;24.870;2023-02-11T09:22:13;100763.00;;;8.35;28.04
46412;BME280;32113;42.012;24.870;2023-02-11T09:24:38;100749.38;;;8.68;27.85
46412;BME280;32113;42.012;24.870;2023-02-11T09:27:04;100752.75;;;9.04;27.68
46412;BME280;32113;42.012;24.870;2023-02-11T09:29:29;100745.06;;;9.42;28.96
46412;BME280;32113;42.012;24.870;2023-02-11T09:31:55;100745.88;;;9.81;30.08
46412;BME280;32113;42.012;24.870;2023-02-11T09:34:20;100738.75;;;10.12;27.81
46412;BME280;32113;42.012;24.870;2023-02-11T09:36:45;100730.59;;;10.34;25.84
46412;BME280;32113;42.012;24.870;2023-02-11T09:39:15;100725.56;;;10.38;26.23
46412;BME280;32113;42.012;24.870;2023-02-11T09:44:15;100718.41;;;10.71;26.22
46412;BME280;32113;42.012;24.870;2023-02-11T09:46:41;100713.56;;;10.88;25.51
46412;BME280;32113;42.012;24.870;2023-02-11T09:49:14;100713.78;;;11.04;24.90
46412;BME280;32113;42.012;24.870;2023-02-11T09:51:42;100705.84;;;10.88;24.83
46412;BME280;32113;42.012;24.870;2023-02-11T09:54:28;100701.53;;;10.87;25.29
46412;BME280;32113;42.012;24.870;2023-02-11T09:56:55;100689.63;;;10.91;24.54
46412;BME280;32113;42.012;24.870;2023-02-11T09:59:20;100682.75;;;10.90;24.47
46412;BME280;32113;42.012;24.870;2023-02-11T10:01:50;100678.41;;;10.84;24.84
46412;BME280;32113;42.012;24.870;2023-02-11T10:06:48;100672.44;;;10.87;24.45
46412;BME280;32113;42.012;24.870;2023-02-11T10:09:20;100660.47;;;10.89;24.71
46412;BME280;32113;42.012;24.870;2023-02-11T10:19:37;100639.13;;;10.93;24.33
46412;BME280;32113;42.012;24.870;2023-02-11T10:24:32;100636.50;;;10.87;24.58
46412;BME280;32113;42.012;24.870;2023-02-11T10:26:58;100641.72;;;10.93;24.48
46412;BME280;32113;42.012;24.870;2023-02-11T10:29:26;100634.91;;;10.97;24.58
46412;BME280;32113;42.012;24.870;2023-02-11T10:31:55;100627.13;;;10.90;24.23
46412;BME280;32113;42.012;24.870;2023-02-11T10:34:22;100622.06;;;10.95;25.00
46412;BME280;32113;42.012;24.870;2023-02-11T10:36:48;100616.06;;;10.96;24.43
46412;BME280;32113;42.012;24.870;2023-02-11T10:39:14;100601.50;;;10.97;25.25
46412;BME280;32113;42.012;24.870;2023-02-11T10:41:59;100595.59;;;11.02;24.14
46412;BME280;32113;42.012;24.870;2023-02-11T10:44:32;100586.22;;;11.06;25.30
46412;BME280;32113;42.012;24.870;2023-02-11T10:47:00;100592.94;;;10.95;24.68
46412;BME280;32113;42.012;24.870;2023-02-11T10:49:34;100585.22;;;10.93;24.84
46412;BME280;32113;42.012;24.870;2023-02-11T10:52:13;100586.00;;;10.86;23.92
46412;BME280;32113;42.012;24.870;2023-02-11T10:54:39;100571.41;;;10.85;24.28
46412;BME280;32113;42.012;24.870;2023-02-11T10:57:04;100570.44;;;10.75;24.20
46412;BME280;32113;42.012;24.870;2023-02-11T10:59:34;100571.16;;;10.66;24.67
46412;BME280;32113;42.012;24.870;2023-02-11T11:02:50;100566.91;;;10.67;24.39
46412;BME280;32113;42.012;24.870;2023-02-11T11:04:49;100559.16;;;10.65;24.49
46412;BME280;32113;42.012;24.870;2023-02-11T11:07:21;100555.81;;;10.69;24.11
46412;BME280;32113;42.012;24.870;2023-02-11T11:12:29;100549.72;;;10.62;23.00
46412;BME280;32113;42.012;24.870;2023-02-11T11:17:35;100536.72;;;10.50;23.45
46412;BME280;32113;42.012;24.870;2023-02-11T11:20:12;100532.47;;;10.50;24.05
46412;BME280;32113;42.012;24.870;2023-02-11T11:22:37;100527.31;;;10.50;23.62
46412;BME280;32113;42.012;24.870;2023-02-11T11:25:03;100525.69;;;10.56;24.10
46412;BME280;32113;42.012;24.870;2023-02-11T11:27:28;100507.59;;;10.46;23.25
46412;BME280;32113;42.012;24.870;2023-02-11T11:29:54;100492.25;;;10.49;23.57
46412;BME280;32113;42.012;24.870;2023-02-11T11:34:52;100488.94;;;10.60;23.65
46412;BME280;32113;42.012;24.870;2023-02-11T11:37:26;100480.38;;;10.58;23.30
46412;BME280;32113;42.012;24.870;2023-02-11T11:42:23;100481.50;;;10.80;23.77
46412;BME280;32113;42.012;24.870;2023-02-11T11:44:56;100477.28;;;10.87;23.27
46412;BME280;32113;42.012;24.870;2023-02-11T11:47:26;100468.75;;;10.88;23.62
46412;BME280;32113;42.012;24.870;2023-02-11T11:52:45;100462.69;;;10.81;23.36
46412;BME280;32113;42.012;24.870;2023-02-11T11:55:15;100457.66;;;10.90;23.04
46412;BME280;32113;42.012;24.870;2023-02-11T11:57:41;100449.97;;;10.92;23.12
46412;BME280;32113;42.012;24.870;2023-02-11T12:00:12;100447.31;;;10.87;23.39
46412;BME280;32113;42.012;24.870;2023-02-11T12:18:56;100425.91;;;10.84;23.07
46412;BME280;32113;42.012;24.870;2023-02-11T12:26:22;100406.31;;;10.92;22.41
46412;BME280;32113;42.012;24.870;2023-02-11T12:31:32;100397.78;;;10.95;22.49
46412;BME280;32113;42.012;24.870;2023-02-11T12:36:52;100397.81;;;10.99;21.87
46412;BME280;32113;42.012;24.870;2023-02-11T12:39:32;100398.66;;;10.98;22.37
46412;BME280;32113;42.012;24.870;2023-02-11T12:42:02;100388.44;;;11.03;22.35
46412;BME280;32113;42.012;24.870;2023-02-11T12:44:58;100394.47;;;11.08;22.00
46412;BME280;32113;42.012;24.870;2023-02-11T12:47:38;100387.66;;;11.12;22.10
46412;BME280;32113;42.012;24.870;2023-02-11T12:55:37;100384.97;;;10.99;21.05
46412;BME280;32113;42.012;24.870;2023-02-11T12:58:04;100388.25;;;10.84;21.21
46412;BME280;32113;42.012;24.870;2023-02-11T13:00:41;100382.22;;;10.81;22.04
46412;BME280;32113;42.012;24.870;2023-02-11T13:03:23;100378.00;;;10.86;22.03
46412;BME280;32113;42.012;24.870;2023-02-11T13:08:49;100372.00;;;10.85;21.83
46412;BME280;32113;42.012;24.870;2023-02-11T13:11:29;100375.50;;;10.92;21.18
46412;BME280;32113;42.012;24.870;2023-02-11T13:14:04;100366.13;;;10.97;21.81
46412;BME280;32113;42.012;24.870;2023-02-11T13:21:53;100353.47;;;11.22;21.45
46412;BME280;32113;42.012;24.870;2023-02-11T13:24:31;100349.19;;;11.21;21.43
46412;BME280;32113;42.012;24.870;2023-02-11T13:32:05;100339.78;;;11.25;20.98
46412;BME280;32113;42.012;24.870;2023-02-11T13:37:11;100344.03;;;11.15;21.07
46412;BME280;32113;42.012;24.870;2023-02-11T13:39:54;100335.50;;;11.19;20.79
46412;BME280;32113;42.012;24.870;2023-02-11T13:42:19;100337.22;;;11.20;21.16
46412;BME280;32113;42.012;24.870;2023-02-11T13:44:45;100332.97;;;11.25;21.08
46412;BME280;32113;42.012;24.870;2023-02-11T13:47:13;100329.56;;;11.28;20.96
46412;BME280;32113;42.012;24.870;2023-02-11T13:49:49;100334.75;;;11.37;24.55
46412;BME280;32113;42.012;24.870;2023-02-11T13:52:21;100325.41;;;11.47;22.84
46412;BME280;32113;42.012;24.870;2023-02-11T13:54:49;100323.72;;;11.51;21.43
46412;BME280;32113;42.012;24.870;2023-02-11T13:59:44;100311.69;;;11.45;21.07
46412;BME280;32113;42.012;24.870;2023-02-11T14:10:50;100302.78;;;11.01;20.94
46412;BME280;32113;42.012;24.870;2023-02-11T14:13:19;100299.97;;;10.71;20.96
46412;BME280;32113;42.012;24.870;2023-02-11T14:15:46;100300.72;;;10.58;20.93
46412;BME280;32113;42.012;24.870;2023-02-11T14:21:00;100292.63;;;10.20;21.63
46412;BME280;32113;42.012;24.870;2023-02-11T14:23:30;100296.84;;;10.18;21.95
46412;BME280;32113;42.012;24.870;2023-02-11T14:26:03;100287.00;;;9.80;21.67
46412;BME280;32113;42.012;24.870;2023-02-11T14:28:30;100287.03;;;9.81;22.06
46412;BME280;32113;42.012;24.870;2023-02-11T14:31:01;100286.13;;;9.79;22.75
46412;BME280;32113;42.012;24.870;2023-02-11T14:33:41;100285.31;;;9.80;22.62
46412;BME280;32113;42.012;24.870;2023-02-11T14:43:32;100289.25;;;9.55;23.12
46412;BME280;32113;42.012;24.870;2023-02-11T14:45:59;100282.16;;;9.35;23.56
46412;BME280;32113;42.012;24.870;2023-02-11T14:48:26;100284.59;;;9.29;23.96
46412;BME280;32113;42.012;24.870;2023-02-11T14:50:56;100292.88;;;9.11;23.81
46412;BME280;32113;42.012;24.870;2023-02-11T14:53:23;100287.66;;;9.04;23.72
46412;BME280;32113;42.012;24.870;2023-02-11T14:55:50;100289.25;;;8.98;24.36
46412;BME280;32113;42.012;24.870;2023-02-11T14:58:19;100287.47;;;8.92;23.79